createdAt,value
2017-06-15T00:00:26.391Z,70.90
2017-06-15T00:02:53.983Z,70.60
2017-06-15T00:05:21.550Z,70.80
2017-06-15T00:07:49.111Z,71.10
2017-06-15T00:10:17.463Z,71.40
2017-06-15T00:12:45.200Z,71.30
2017-06-15T00:15:12.772Z,70.90
2017-06-15T00:17:40.352Z,71.30
2017-06-15T00:20:08.197Z,71.00
2017-06-15T00:22:35.762Z,71.20
2017-06-15T00:25:03.335Z,70.90
2017-06-15T00:27:30.918Z,71.60
2017-06-15T00:29:58.481Z,70.70
2017-06-15T00:32:26.086Z,70.60
2017-06-15T00:34:53.661Z,70.50
2017-06-15T00:37:21.257Z,70.40
2017-06-15T00:39:48.837Z,70.40
2017-06-15T00:42:16.415Z,70.40
2017-06-15T00:44:43.991Z,70.30
2017-06-15T00:47:11.561Z,70.20
2017-06-15T00:49:39.149Z,71.20
2017-06-15T00:52:07.480Z,71.50
2017-06-15T00:54:35.339Z,71.40
2017-06-15T00:57:02.915Z,71.50
2017-06-15T00:59:30.494Z,71.40
2017-06-15T01:01:58.067Z,72.00
2017-06-15T01:04:25.647Z,71.80
2017-06-15T01:06:53.233Z,72.70
2017-06-15T01:09:20.805Z,72.70
2017-06-15T01:11:48.397Z,73.00
2017-06-15T01:14:16.721Z,72.30
2017-06-15T01:16:44.289Z,72.30
2017-06-15T01:19:11.861Z,72.50
2017-06-15T01:21:39.413Z,72.20
2017-06-15T01:24:06.999Z,72.60
2017-06-15T01:26:34.577Z,72.90
2017-06-15T01:29:02.950Z,73.70
2017-06-15T01:31:31.275Z,73.90
2017-06-15T01:33:58.838Z,74.00
2017-06-15T01:36:26.402Z,73.50
2017-06-15T01:38:53.980Z,73.70
2017-06-15T01:41:21.566Z,73.80
2017-06-15T01:43:49.911Z,73.90
2017-06-15T01:46:17.514Z,73.70
2017-06-15T01:48:45.079Z,74.10
2017-06-15T01:51:12.660Z,73.70
2017-06-15T01:53:40.256Z,73.00
2017-06-15T01:56:07.828Z,72.90
2017-06-15T01:58:35.408Z,72.90
2017-06-15T02:01:02.974Z,73.00
2017-06-15T02:03:30.561Z,73.20
2017-06-15T02:05:58.128Z,73.00
2017-06-15T02:08:25.692Z,73.00
2017-06-15T02:10:53.267Z,73.20
2017-06-15T02:13:20.843Z,73.00
2017-06-15T02:15:49.196Z,72.70
2017-06-15T02:18:16.754Z,72.70
2017-06-15T02:20:44.338Z,72.80
2017-06-15T02:23:11.906Z,73.20
2017-06-15T02:25:40.260Z,73.50
2017-06-15T02:28:08.605Z,74.40
2017-06-15T02:30:36.177Z,74.10
2017-06-15T02:33:03.750Z,74.40
2017-06-15T02:35:31.333Z,74.30
2017-06-15T02:37:59.704Z,74.30
2017-06-15T02:40:27.272Z,74.20
2017-06-15T02:42:55.615Z,74.40
2017-06-15T02:45:23.216Z,74.30
2017-06-15T02:47:50.781Z,74.50
2017-06-15T02:50:18.356Z,74.80
2017-06-15T02:52:45.922Z,74.90
2017-06-15T02:55:13.534Z,74.90
2017-06-15T02:57:41.864Z,75.30
2017-06-15T03:00:09.443Z,75.20
2017-06-15T03:02:37.035Z,75.10
2017-06-15T03:05:04.620Z,74.70
2017-06-15T03:07:32.200Z,74.80
2017-06-15T03:09:59.772Z,75.00
2017-06-15T03:12:27.387Z,75.10
2017-06-15T03:14:54.978Z,75.50
2017-06-15T03:17:22.551Z,75.80
2017-06-15T03:19:50.147Z,76.00
2017-06-15T03:22:18.570Z,76.30
2017-06-15T03:24:46.168Z,76.30
2017-06-15T03:27:14.511Z,76.00
2017-06-15T03:29:42.364Z,75.80
2017-06-15T03:32:09.934Z,76.30
2017-06-15T03:34:37.504Z,76.30
2017-06-15T03:37:05.096Z,76.90
2017-06-15T03:39:33.449Z,76.20
2017-06-15T03:42:01.026Z,76.20
2017-06-15T03:44:28.581Z,75.70
2017-06-15T03:46:56.184Z,75.60
2017-06-15T03:49:23.756Z,75.30
2017-06-15T03:51:51.320Z,75.40
2017-06-15T03:54:18.915Z,75.20
2017-06-15T03:56:46.491Z,75.50
2017-06-15T03:59:14.845Z,76.10
2017-06-15T04:01:42.760Z,75.90
2017-06-15T04:04:10.436Z,76.20
2017-06-15T04:06:38.016Z,76.30
2017-06-15T04:09:05.582Z,76.60
2017-06-15T04:11:33.168Z,76.20
2017-06-15T04:14:01.517Z,75.50
2017-06-15T04:16:29.096Z,75.50
2017-06-15T04:18:56.672Z,75.90
2017-06-15T04:21:25.026Z,76.10
2017-06-15T04:23:52.601Z,76.10
2017-06-15T04:26:20.169Z,76.20
2017-06-15T04:28:47.772Z,76.40
2017-06-15T04:31:15.355Z,75.90
2017-06-15T04:33:42.963Z,75.40
2017-06-15T04:36:10.537Z,74.80
2017-06-15T04:38:38.128Z,75.60
2017-06-15T04:41:05.704Z,75.10
2017-06-15T04:43:33.284Z,75.00
2017-06-15T04:46:00.869Z,75.20
2017-06-15T04:48:28.436Z,75.20
2017-06-15T04:50:56.022Z,75.50
2017-06-15T04:53:23.578Z,75.40
2017-06-15T04:55:51.183Z,75.40
2017-06-15T04:58:18.747Z,75.00
2017-06-15T05:00:46.325Z,75.40
2017-06-15T05:03:13.908Z,76.00
2017-06-15T05:05:41.470Z,76.80
2017-06-15T05:08:09.051Z,77.20
2017-06-15T05:10:36.616Z,77.00
2017-06-15T05:13:04.563Z,76.90
2017-06-15T05:15:32.133Z,76.40
2017-06-15T05:17:59.711Z,76.10
2017-06-15T05:20:27.292Z,76.10
2017-06-15T05:22:54.884Z,76.00
2017-06-15T05:25:22.478Z,76.00
2017-06-15T05:27:50.055Z,76.10
2017-06-15T05:30:17.893Z,76.00
2017-06-15T05:32:45.443Z,75.70
2017-06-15T05:35:13.033Z,75.40
2017-06-15T05:37:40.611Z,75.40
2017-06-15T05:40:08.182Z,75.40
2017-06-15T05:42:35.770Z,75.30
2017-06-15T05:45:03.349Z,75.10
2017-06-15T05:47:30.988Z,74.90
2017-06-15T05:49:58.552Z,74.70
2017-06-15T05:52:26.132Z,74.40
2017-06-15T05:54:53.727Z,73.70
2017-06-15T05:57:21.325Z,73.50
2017-06-15T05:59:48.895Z,73.40
2017-06-15T06:02:16.474Z,73.40
2017-06-15T06:04:44.451Z,73.10
2017-06-15T06:07:12.793Z,72.60
2017-06-15T06:09:40.430Z,72.60
2017-06-15T06:12:08.010Z,71.90
2017-06-15T06:14:35.589Z,72.00
2017-06-15T06:17:03.167Z,72.60
2017-06-15T06:19:30.753Z,70.90
2017-06-15T06:21:58.370Z,70.50
2017-06-15T06:24:25.957Z,69.60
2017-06-15T06:26:53.565Z,69.20
2017-06-15T06:29:21.141Z,68.90
2017-06-15T06:31:48.870Z,68.90
2017-06-15T06:34:16.458Z,68.60
2017-06-15T06:36:44.019Z,68.60
2017-06-15T06:39:11.609Z,68.30
2017-06-15T06:41:39.960Z,67.20
2017-06-15T06:44:07.536Z,67.10
2017-06-15T06:46:35.122Z,67.20
2017-06-15T06:49:02.685Z,67.50
2017-06-15T06:51:30.366Z,67.20
2017-06-15T06:53:57.936Z,67.00
2017-06-15T06:56:25.534Z,66.30
2017-06-15T06:58:53.098Z,66.00
2017-06-15T07:01:21.421Z,63.10
2017-06-15T07:03:49.030Z,63.00
2017-06-15T07:06:17.362Z,60.70
2017-06-15T07:08:44.951Z,60.60
2017-06-15T07:11:12.523Z,61.10
2017-06-15T07:13:40.874Z,60.00
2017-06-15T07:16:08.436Z,59.90
2017-06-15T07:18:36.000Z,59.80
2017-06-15T07:21:03.585Z,60.10
2017-06-15T07:23:31.909Z,59.10
2017-06-15T07:25:59.467Z,59.10
2017-06-15T07:28:27.035Z,58.70
2017-06-15T07:30:54.996Z,58.40
2017-06-15T07:33:22.547Z,58.00
2017-06-15T07:35:50.107Z,57.90
2017-06-15T07:38:17.686Z,58.00
2017-06-15T07:40:45.247Z,58.70
2017-06-15T07:43:12.846Z,57.10
2017-06-15T07:45:40.426Z,56.90
2017-06-15T07:48:08.249Z,56.70
2017-06-15T07:50:35.819Z,56.00
2017-06-15T07:53:04.152Z,54.50
2017-06-15T07:55:32.022Z,54.50
2017-06-15T07:57:59.656Z,54.50
2017-06-15T08:00:27.241Z,54.40
2017-06-15T08:02:54.818Z,53.80
2017-06-15T08:05:22.444Z,50.50
2017-06-15T08:07:50.051Z,50.40
2017-06-15T08:10:18.462Z,48.80
2017-06-15T08:12:46.027Z,48.50
2017-06-15T08:15:13.613Z,49.60
2017-06-15T08:17:41.179Z,48.20
2017-06-15T08:20:08.769Z,48.30
2017-06-15T08:22:36.333Z,46.80
2017-06-15T08:25:04.669Z,46.50
2017-06-15T08:27:32.247Z,46.40
2017-06-15T08:29:59.815Z,45.20
2017-06-15T08:32:27.405Z,45.10
2017-06-15T08:34:54.980Z,44.60
2017-06-15T08:37:22.579Z,42.60
2017-06-15T08:39:50.183Z,42.50
2017-06-15T08:42:17.750Z,42.20
2017-06-15T08:45:02.930Z,42.00
2017-06-15T08:47:30.490Z,41.70
2017-06-15T08:49:58.069Z,42.10
2017-06-15T08:52:25.640Z,39.80
2017-06-15T08:54:53.211Z,39.30
2017-06-15T08:57:20.798Z,40.70
2017-06-15T08:59:49.142Z,41.70
2017-06-15T09:02:16.711Z,41.70
2017-06-15T09:04:44.275Z,42.00
2017-06-15T09:07:11.834Z,43.20
2017-06-15T09:09:40.226Z,42.80
2017-06-15T09:12:08.259Z,42.70
2017-06-15T09:14:35.825Z,42.90
2017-06-15T09:17:03.395Z,42.60
2017-06-15T09:19:30.999Z,42.70
2017-06-15T09:21:58.556Z,42.50
2017-06-15T09:24:26.126Z,42.30
2017-06-15T09:26:53.695Z,42.60
2017-06-15T09:29:21.294Z,43.30
2017-06-15T09:31:48.867Z,42.20
2017-06-15T09:34:16.458Z,42.00
2017-06-15T09:36:44.275Z,42.50
2017-06-15T09:39:11.850Z,42.30
2017-06-15T09:41:40.182Z,41.20
2017-06-15T09:44:07.752Z,41.20
2017-06-15T09:46:35.318Z,41.30
2017-06-15T09:49:02.908Z,41.20
2017-06-15T09:51:30.482Z,41.20
2017-06-15T09:53:59.783Z,41.60
2017-06-15T09:56:27.380Z,41.10
2017-06-15T09:58:54.971Z,40.70
2017-06-15T10:01:22.541Z,40.10
2017-06-15T10:03:50.867Z,40.60
2017-06-15T10:06:19.262Z,41.20
2017-06-15T10:08:46.839Z,41.10
2017-06-15T10:11:15.180Z,40.10
2017-06-15T10:13:42.754Z,40.10
2017-06-15T10:16:10.358Z,40.00
2017-06-15T10:18:37.922Z,41.30
2017-06-15T10:21:05.485Z,40.50
2017-06-15T10:23:33.062Z,40.40
2017-06-15T10:26:00.639Z,40.70
2017-06-15T10:28:28.227Z,40.80
2017-06-15T10:30:56.578Z,39.80
2017-06-15T10:33:24.161Z,39.80
2017-06-15T10:35:51.739Z,39.80
2017-06-15T10:38:20.064Z,40.00
2017-06-15T10:40:47.660Z,39.90
2017-06-15T10:43:15.228Z,39.80
2017-06-15T10:45:43.558Z,39.60
2017-06-15T10:48:11.117Z,39.60
2017-06-15T10:50:38.714Z,39.40
2017-06-15T10:53:07.044Z,40.00
2017-06-15T10:55:34.621Z,39.90
2017-06-15T10:58:02.180Z,38.60
2017-06-15T11:00:31.348Z,38.70
2017-06-15T11:02:58.923Z,38.70
2017-06-15T11:05:26.487Z,40.00
2017-06-15T11:07:54.091Z,38.30
2017-06-15T11:10:21.665Z,38.40
2017-06-15T11:12:49.237Z,38.40
2017-06-15T11:15:16.843Z,38.00
2017-06-15T11:17:44.455Z,37.80
2017-06-15T11:20:12.045Z,37.60
2017-06-15T11:22:39.623Z,37.30
2017-06-15T11:25:07.586Z,37.20
2017-06-15T11:27:35.253Z,37.60
2017-06-15T11:30:02.843Z,38.10
2017-06-15T11:32:30.453Z,37.80
2017-06-15T11:34:58.031Z,39.10
2017-06-15T11:37:25.630Z,37.30
2017-06-15T11:39:53.213Z,36.70
2017-06-15T11:42:20.853Z,38.50
2017-06-15T11:44:48.450Z,36.70
2017-06-15T11:47:16.015Z,36.30
2017-06-15T11:49:43.596Z,37.10
2017-06-15T11:52:11.941Z,37.50
2017-06-15T11:54:39.514Z,36.80
2017-06-15T11:57:07.079Z,35.70
2017-06-15T11:59:34.669Z,35.20
2017-06-15T12:02:02.258Z,35.70
2017-06-15T12:04:29.837Z,34.50
2017-06-15T12:06:57.428Z,34.20
2017-06-15T12:09:25.758Z,34.60
2017-06-15T12:11:53.333Z,33.90
2017-06-15T12:14:20.906Z,33.70
2017-06-15T12:16:48.489Z,33.10
2017-06-15T12:19:16.830Z,32.20
2017-06-15T12:21:44.399Z,32.20
2017-06-15T12:24:11.979Z,32.70
2017-06-15T12:26:40.355Z,33.60
2017-06-15T12:29:08.705Z,35.10
2017-06-15T12:31:36.280Z,35.00
2017-06-15T12:34:03.878Z,34.40
2017-06-15T12:36:31.470Z,35.80
2017-06-15T12:38:59.040Z,32.00
2017-06-15T12:41:26.628Z,33.60
2017-06-15T12:43:54.218Z,32.80
2017-06-15T12:46:21.818Z,32.60
2017-06-15T12:48:49.392Z,32.10
2017-06-15T12:51:17.022Z,32.40
2017-06-15T12:53:44.588Z,31.80
2017-06-15T12:56:12.149Z,32.50
2017-06-15T12:58:39.727Z,32.10
2017-06-15T13:01:07.297Z,32.30
2017-06-15T13:03:35.654Z,33.70
2017-06-15T13:06:03.233Z,33.60
2017-06-15T13:08:31.590Z,33.10
2017-06-15T13:10:59.148Z,33.00
2017-06-15T13:13:26.953Z,32.60
2017-06-15T13:15:54.536Z,31.90
2017-06-15T13:18:22.141Z,30.90
2017-06-15T13:20:49.738Z,30.00
2017-06-15T13:23:17.307Z,29.40
2017-06-15T13:25:44.920Z,29.80
2017-06-15T13:28:12.499Z,31.00
2017-06-15T13:30:40.853Z,32.00
2017-06-15T13:33:08.447Z,32.00
2017-06-15T13:35:36.003Z,31.60
2017-06-15T13:38:04.338Z,34.70
2017-06-15T13:40:31.906Z,34.70
2017-06-15T13:42:59.488Z,33.00
2017-06-15T13:45:27.808Z,30.50
2017-06-15T13:47:55.377Z,30.50
2017-06-15T13:50:22.959Z,31.10
2017-06-15T13:52:50.536Z,31.30
2017-06-15T13:55:18.131Z,31.40
2017-06-15T13:57:45.688Z,31.30
2017-06-15T14:00:13.257Z,32.00
2017-06-15T14:02:40.834Z,29.80
2017-06-15T14:05:08.416Z,29.40
2017-06-15T14:07:35.973Z,30.20
2017-06-15T14:10:03.560Z,31.80
2017-06-15T14:12:31.131Z,30.60
2017-06-15T14:14:58.709Z,29.70
2017-06-15T14:17:26.310Z,30.10
2017-06-15T14:19:53.902Z,30.10
2017-06-15T14:22:21.468Z,30.60
2017-06-15T14:24:49.064Z,30.20
2017-06-15T14:27:16.617Z,30.60
2017-06-15T14:29:44.209Z,31.90
2017-06-15T14:32:11.778Z,32.50
2017-06-15T14:34:40.128Z,31.30
2017-06-15T14:37:07.712Z,31.30
2017-06-15T14:39:36.073Z,31.20
2017-06-15T14:42:03.673Z,31.20
2017-06-15T14:44:31.231Z,31.90
2017-06-15T14:46:58.797Z,31.80
2017-06-15T14:49:26.434Z,31.90
2017-06-15T14:51:54.003Z,31.60
2017-06-15T14:54:21.596Z,31.40
2017-06-15T14:56:49.168Z,30.50
2017-06-15T14:59:16.739Z,29.20
2017-06-15T15:01:45.044Z,28.50
2017-06-15T15:04:13.370Z,27.60
2017-06-15T15:06:40.981Z,27.60
2017-06-15T15:09:20.496Z,26.80
2017-06-15T15:11:48.477Z,25.40
2017-06-15T15:14:16.824Z,23.30
2017-06-15T15:16:44.390Z,22.70
2017-06-15T15:19:11.977Z,21.20
2017-06-15T15:21:40.315Z,19.70
2017-06-15T15:24:08.187Z,19.70
2017-06-15T15:26:35.751Z,18.50
2017-06-15T15:29:03.313Z,17.90
2017-06-15T15:31:30.886Z,18.50
2017-06-15T15:33:58.465Z,19.50
2017-06-15T15:36:26.064Z,21.40
2017-06-15T15:38:53.659Z,21.30
2017-06-15T15:41:21.265Z,21.90
2017-06-15T15:43:48.846Z,22.70
2017-06-15T15:46:16.416Z,24.50
2017-06-15T15:48:43.989Z,26.40
2017-06-15T15:51:11.559Z,28.50
2017-06-15T15:53:39.147Z,28.80
2017-06-15T15:56:06.712Z,28.90
2017-06-15T15:58:34.330Z,28.50
2017-06-15T16:01:01.899Z,27.60
2017-06-15T16:03:30.241Z,29.40
2017-06-15T16:05:57.829Z,28.90
2017-06-15T16:08:25.393Z,30.00
2017-06-15T16:10:53.736Z,32.90
2017-06-15T16:13:21.313Z,32.30
2017-06-15T16:15:49.077Z,32.90
2017-06-15T16:18:16.656Z,32.60
2017-06-15T16:20:44.257Z,33.00
2017-06-15T16:23:11.871Z,33.40
2017-06-15T16:25:40.241Z,34.50
2017-06-15T16:28:07.844Z,34.40
2017-06-15T16:30:35.431Z,34.40
2017-06-15T16:33:03.026Z,34.90
2017-06-15T16:35:31.417Z,36.50
2017-06-15T16:37:59.748Z,37.30
2017-06-15T16:40:27.339Z,37.30
2017-06-15T16:42:55.661Z,38.80
2017-06-15T16:45:23.270Z,38.60
2017-06-15T16:47:50.838Z,39.20
2017-06-15T16:50:19.203Z,39.90
2017-06-15T16:52:46.765Z,39.80
2017-06-15T16:55:14.333Z,40.20
2017-06-15T16:57:42.689Z,40.70
2017-06-15T17:00:10.280Z,40.60
2017-06-15T17:02:38.626Z,41.20
2017-06-15T17:05:06.190Z,41.80
2017-06-15T17:07:33.785Z,41.40
2017-06-15T17:10:01.338Z,41.50
2017-06-15T17:12:28.979Z,41.80
2017-06-15T17:14:56.561Z,41.50
2017-06-15T17:17:24.134Z,41.30
2017-06-15T17:19:51.735Z,41.40
2017-06-15T17:22:19.311Z,41.10
2017-06-15T17:24:46.922Z,40.90
2017-06-15T17:27:14.495Z,40.90
2017-06-15T17:29:42.067Z,40.40
2017-06-15T17:32:09.657Z,40.20
2017-06-15T17:34:38.029Z,41.30
2017-06-15T17:37:05.634Z,41.30
2017-06-15T17:39:33.217Z,41.50
2017-06-15T17:42:00.907Z,42.30
2017-06-15T17:44:28.474Z,42.90
2017-06-15T17:46:56.050Z,43.50
2017-06-15T17:49:23.690Z,43.70
2017-06-15T17:51:52.032Z,43.80
2017-06-15T17:54:19.681Z,43.80
2017-06-15T17:56:47.245Z,43.80
2017-06-15T17:59:14.868Z,44.10
2017-06-15T18:01:42.432Z,44.30
2017-06-15T18:04:10.027Z,45.10
2017-06-15T18:06:37.863Z,44.90
2017-06-15T18:09:05.547Z,45.30
2017-06-15T18:11:33.153Z,45.60
2017-06-15T18:14:01.486Z,46.50
2017-06-15T18:16:29.084Z,46.40
2017-06-15T18:18:57.414Z,47.00
2017-06-15T18:21:25.045Z,47.00
2017-06-15T18:23:52.637Z,47.20
2017-06-15T18:26:20.197Z,47.30
2017-06-15T18:28:47.815Z,47.80
2017-06-15T18:31:15.452Z,48.20
2017-06-15T18:33:43.033Z,48.40
2017-06-15T18:36:11.394Z,49.20
2017-06-15T18:38:38.972Z,49.10
2017-06-15T18:41:06.557Z,49.20
2017-06-15T18:43:34.145Z,49.60
2017-06-15T18:46:01.744Z,49.60
2017-06-15T18:48:30.083Z,50.60
2017-06-15T18:50:57.926Z,50.60
2017-06-15T18:53:25.696Z,50.70
2017-06-15T18:55:53.278Z,51.00
2017-06-15T18:58:20.891Z,51.00
2017-06-15T19:00:48.525Z,52.40
2017-06-15T19:03:22.504Z,52.30
2017-06-15T19:05:50.918Z,52.90
2017-06-15T19:08:18.642Z,52.90
2017-06-15T19:10:46.431Z,53.30
2017-06-15T19:13:14.059Z,53.30
2017-06-15T19:15:41.659Z,54.70
2017-06-15T19:18:10.008Z,55.80
2017-06-15T19:20:37.710Z,55.70
2017-06-15T19:23:05.350Z,56.00
2017-06-15T19:25:33.887Z,55.40
2017-06-15T19:28:01.557Z,55.40
2017-06-15T19:30:29.126Z,55.50
2017-06-15T19:32:56.696Z,55.50
2017-06-15T19:35:24.272Z,55.50
2017-06-15T19:37:51.848Z,55.70
2017-06-15T19:40:19.436Z,55.70
2017-06-15T19:42:47.010Z,55.80
2017-06-15T19:45:14.616Z,55.90
2017-06-15T19:47:42.945Z,56.30
2017-06-15T19:50:10.627Z,56.30
2017-06-15T19:52:38.266Z,56.60
2017-06-15T19:55:05.862Z,56.80
2017-06-15T19:57:34.291Z,57.30
2017-06-15T20:00:01.960Z,57.20
2017-06-15T20:02:29.587Z,57.20
2017-06-15T20:04:57.176Z,57.30
2017-06-15T20:07:25.030Z,57.20
2017-06-15T20:09:52.794Z,57.40
2017-06-15T20:12:20.452Z,57.40
2017-06-15T20:14:48.292Z,57.40
2017-06-15T20:17:16.351Z,57.50
2017-06-15T20:19:44.072Z,57.50
2017-06-15T20:22:11.773Z,57.60
2017-06-15T20:24:45.077Z,57.90
2017-06-15T20:27:13.027Z,58.00
2017-06-15T20:29:41.647Z,58.30
2017-06-15T20:32:09.456Z,58.30
2017-06-15T20:34:37.261Z,58.40
2017-06-15T20:37:05.066Z,58.60
2017-06-15T20:39:32.847Z,58.90
2017-06-15T20:42:01.889Z,59.70
2017-06-15T20:44:29.591Z,59.60
2017-06-15T20:46:57.308Z,59.80
2017-06-15T20:49:25.039Z,59.90
2017-06-15T20:51:52.641Z,59.90
2017-06-15T20:54:20.265Z,59.90
2017-06-15T20:56:48.626Z,59.60
2017-06-15T20:59:16.207Z,59.90
2017-06-15T21:01:44.538Z,60.00
2017-06-15T21:04:12.164Z,60.00
2017-06-15T21:06:39.761Z,60.30
2017-06-15T21:09:07.366Z,60.20
2017-06-15T21:11:35.794Z,59.90
2017-06-15T21:14:03.401Z,59.80
2017-06-15T21:16:31.820Z,59.80
2017-06-15T21:18:59.391Z,59.80
2017-06-15T21:21:27.033Z,60.10
2017-06-15T21:23:54.620Z,60.60
2017-06-15T21:26:22.207Z,60.10
2017-06-15T21:28:49.778Z,61.40
2017-06-15T21:31:18.184Z,59.90
2017-06-15T21:33:45.757Z,59.90
2017-06-15T21:36:13.345Z,59.10
2017-06-15T21:38:40.931Z,59.50
2017-06-15T21:41:09.269Z,57.60
2017-06-15T21:43:37.139Z,57.60
2017-06-15T21:46:04.700Z,57.10
2017-06-15T21:48:32.256Z,56.20
2017-06-15T21:50:59.847Z,55.90
2017-06-15T21:53:28.207Z,59.60
2017-06-15T21:55:55.823Z,59.60
2017-06-15T21:58:23.410Z,59.90
2017-06-15T22:00:50.992Z,57.50
2017-06-15T22:03:18.591Z,57.70
2017-06-15T22:05:46.162Z,57.60
2017-06-15T22:08:13.751Z,57.10
2017-06-15T22:10:41.314Z,57.70
2017-06-15T22:13:08.886Z,57.80
2017-06-15T22:15:36.466Z,57.80
2017-06-15T22:18:04.819Z,59.20
2017-06-15T22:20:32.392Z,59.10
2017-06-15T22:23:00.729Z,60.60
2017-06-15T22:25:28.326Z,60.50
2017-06-15T22:27:56.917Z,61.70
2017-06-15T22:30:25.265Z,62.00
2017-06-15T22:32:52.856Z,62.00
2017-06-15T22:35:21.202Z,62.70
2017-06-15T22:37:48.786Z,62.60
2017-06-15T22:40:17.162Z,63.40
2017-06-15T22:42:45.505Z,63.70
2017-06-15T22:45:13.082Z,63.50
2017-06-15T22:47:40.660Z,64.10
2017-06-15T22:50:09.291Z,65.10
2017-06-15T22:52:36.848Z,65.10
2017-06-15T22:55:04.421Z,65.50
2017-06-15T22:57:32.000Z,65.80
2017-06-15T22:59:59.561Z,65.80
2017-06-15T23:02:39.034Z,66.00
2017-06-15T23:05:06.607Z,66.10
2017-06-15T23:07:34.179Z,66.20
2017-06-15T23:10:01.764Z,66.20
2017-06-15T23:12:29.318Z,66.40
2017-06-15T23:14:57.176Z,66.50
2017-06-15T23:17:24.745Z,66.30
2017-06-15T23:19:52.329Z,66.40
2017-06-15T23:22:19.951Z,66.50
2017-06-15T23:24:47.554Z,66.70
2017-06-15T23:27:15.887Z,66.80
2017-06-15T23:29:43.464Z,66.70
2017-06-15T23:32:11.059Z,66.50
2017-06-15T23:34:39.379Z,66.50
2017-06-15T23:37:06.943Z,66.50
2017-06-15T23:39:34.531Z,66.70
2017-06-15T23:42:02.101Z,66.90
2017-06-15T23:44:30.456Z,67.20
2017-06-15T23:46:58.021Z,67.10
2017-06-15T23:49:25.599Z,66.80
2017-06-15T23:51:53.193Z,66.90
2017-06-15T23:54:20.761Z,66.90
2017-06-15T23:56:48.334Z,67.10
2017-06-15T23:59:15.897Z,67.00
